sensor_id;sensor_type;location;lat;lon;timestamp;pressure;altitude;pressure_sealevel;temperature;humidity
9110;BME280;4590;51.462;6.692;2023-06-22T00:02:16;101619.06;;;24.02;49.32
9110;BME280;4590;51.462;6.692;2023-06-22T00:04:42;101620.25;;;24.01;49.50
9110;BME280;4590;51.462;6.692;2023-06-22T00:07:07;101622.63;;;23.99;49.72
9110;BME280;4590;51.462;6.692;2023-06-22T00:09:33;101627.06;;;24.00;49.40
9110;BME280;4590;51.462;6.692;2023-06-22T00:11:58;101623.00;;;23.98;49.27
9110;BME280;4590;51.462;6.692;2023-06-22T00:14:23;101613.31;;;23.95;50.51
9110;BME280;4590;51.462;6.692;2023-06-22T00:16:49;101624.19;;;23.97;49.05
9110;BME280;4590;51.462;6.692;2023-06-22T00:19:14;101625.00;;;23.97;48.73
9110;BME280;4590;51.462;6.692;2023-06-22T00:21:40;101618.09;;;23.91;50.96
9110;BME280;4590;51.462;6.692;2023-06-22T00:24:05;101619.31;;;23.94;49.40
9110;BME280;4590;51.462;6.692;2023-06-22T00:26:31;101620.50;;;23.93;49.24
9110;BME280;4590;51.462;6.692;2023-06-22T00:28:56;101620.50;;;23.93;48.01
9110;BME280;4590;51.462;6.692;2023-06-22T00:31:21;101622.47;;;23.89;48.99
9110;BME280;4590;51.462;6.692;2023-06-22T00:33:46;101615.59;;;23.86;49.17
9110;BME280;4590;51.462;6.692;2023-06-22T00:36:11;101621.94;;;23.83;49.17
9110;BME280;4590;51.462;6.692;2023-06-22T00:38:41;101623.88;;;23.79;49.79
9110;BME280;4590;51.462;6.692;2023-06-22T00:41:06;101615.00;;;23.77;47.80
9110;BME280;4590;51.462;6.692;2023-06-22T00:43:31;101608.53;;;23.73;49.67
9110;BME280;4590;51.462;6.692;2023-06-22T00:45:56;101612.16;;;23.73;48.34
9110;BME280;4590;51.462;6.692;2023-06-22T00:48:21;101610.47;;;23.69;49.58
9110;BME280;4590;51.462;6.692;2023-06-22T00:50:47;101610.03;;;23.67;49.82
9110;BME280;4590;51.462;6.692;2023-06-22T00:53:15;101611.22;;;23.66;48.85
9110;BME280;4590;51.462;6.692;2023-06-22T00:55:43;101604.34;;;23.63;50.62
9110;BME280;4590;51.462;6.692;2023-06-22T00:58:10;101604.78;;;23.65;49.15
9110;BME280;4590;51.462;6.692;2023-06-22T01:00:36;101607.09;;;23.60;50.92
9110;BME280;4590;51.462;6.692;2023-06-22T01:03:01;101597.50;;;23.61;49.96
9110;BME280;4590;51.462;6.692;2023-06-22T01:05:27;101598.25;;;23.58;50.44
9110;BME280;4590;51.462;6.692;2023-06-22T01:08:00;101593.81;;;23.57;51.00
9110;BME280;4590;51.462;6.692;2023-06-22T01:13:16;101591.06;;;23.60;50.62
9110;BME280;4590;51.462;6.692;2023-06-22T01:18:33;101587.84;;;23.62;51.00
9110;BME280;4590;51.462;6.692;2023-06-22T01:21:01;101580.63;;;23.61;50.88
9110;BME280;4590;51.462;6.692;2023-06-22T01:23:29;101580.63;;;23.61;50.75
9110;BME280;4590;51.462;6.692;2023-06-22T01:31:07;101585.31;;;23.53;51.41
9110;BME280;4590;51.462;6.692;2023-06-22T01:35:59;101582.31;;;23.46;50.86
9110;BME280;4590;51.462;6.692;2023-06-22T01:38:25;101586.28;;;23.41;51.40
9110;BME280;4590;51.462;6.692;2023-06-22T01:40:51;101579.41;;;23.39;51.23
9110;BME280;4590;51.462;6.692;2023-06-22T01:43:17;101578.59;;;23.38;51.22
9110;BME280;4590;51.462;6.692;2023-06-22T01:45:42;101579.41;;;23.39;50.49
9110;BME280;4590;51.462;6.692;2023-06-22T01:48:07;101582.94;;;23.36;51.03
9110;BME280;4590;51.462;6.692;2023-06-22T01:50:33;101574.53;;;23.36;51.32
9110;BME280;4590;51.462;6.692;2023-06-22T01:52:58;101581.78;;;23.37;51.55
9110;BME280;4590;51.462;6.692;2023-06-22T01:55:23;101584.56;;;23.37;51.92
9110;BME280;4590;51.462;6.692;2023-06-22T02:01:05;101572.91;;;23.35;51.86
9110;BME280;4590;51.462;6.692;2023-06-22T02:03:34;101572.09;;;23.34;52.13
9110;BME280;4590;51.462;6.692;2023-06-22T02:06:10;101570.47;;;23.33;51.90
9110;BME280;4590;51.462;6.692;2023-06-22T02:08:54;101568.84;;;23.32;51.50
9110;BME280;4590;51.462;6.692;2023-06-22T02:11:20;101566.41;;;23.31;50.69
9110;BME280;4590;51.462;6.692;2023-06-22T02:13:46;101563.19;;;23.29;51.51
9110;BME280;4590;51.462;6.692;2023-06-22T02:16:13;101567.91;;;23.25;53.44
9110;BME280;4590;51.462;6.692;2023-06-22T02:18:38;101574.78;;;23.27;52.27
9110;BME280;4590;51.462;6.692;2023-06-22T02:21:05;101570.34;;;23.26;51.68
9110;BME280;4590;51.462;6.692;2023-06-22T02:23:30;101567.03;;;23.21;53.88
9110;BME280;4590;51.462;6.692;2023-06-22T02:25:57;101570.66;;;23.21;52.77
9110;BME280;4590;51.462;6.692;2023-06-22T02:28:23;101560.53;;;23.17;52.40
9110;BME280;4590;51.462;6.692;2023-06-22T02:30:48;101559.72;;;23.16;53.28
9110;BME280;4590;51.462;6.692;2023-06-22T02:33:13;101557.34;;;23.18;52.66
9110;BME280;4590;51.462;6.692;2023-06-22T02:35:38;101562.97;;;23.18;53.18
9110;BME280;4590;51.462;6.692;2023-06-22T02:38:04;101564.16;;;23.17;53.82
9110;BME280;4590;51.462;6.692;2023-06-22T02:40:30;101562.16;;;23.18;53.33
9110;BME280;4590;51.462;6.692;2023-06-22T02:42:56;101556.09;;;23.16;52.41
9110;BME280;4590;51.462;6.692;2023-06-22T02:45:23;101556.47;;;23.14;53.15
9110;BME280;4590;51.462;6.692;2023-06-22T02:47:48;101554.47;;;23.15;53.15
9110;BME280;4590;51.462;6.692;2023-06-22T02:50:13;101554.47;;;23.15;52.43
9110;BME280;4590;51.462;6.692;2023-06-22T02:52:39;101556.03;;;23.12;51.83
9110;BME280;4590;51.462;6.692;2023-06-22T02:55:04;101548.38;;;23.09;53.54
9110;BME280;4590;51.462;6.692;2023-06-22T02:57:29;101551.53;;;23.07;53.28
9110;BME280;4590;51.462;6.692;2023-06-22T02:59:55;101537.44;;;23.04;52.55
9110;BME280;4590;51.462;6.692;2023-06-22T03:02:20;101538.63;;;23.03;52.54
9110;BME280;4590;51.462;6.692;2023-06-22T03:04:46;101546.53;;;22.97;55.12
9110;BME280;4590;51.462;6.692;2023-06-22T03:07:14;101540.97;;;23.01;53.42
9110;BME280;4590;51.462;6.692;2023-06-22T03:09:39;101549.03;;;23.02;53.83
9110;BME280;4590;51.462;6.692;2023-06-22T03:12:04;101532.19;;;23.02;53.92
9110;BME280;4590;51.462;6.692;2023-06-22T03:14:30;101533.81;;;23.03;54.12
9110;BME280;4590;51.462;6.692;2023-06-22T03:16:55;101534.63;;;23.04;54.06
9110;BME280;4590;51.462;6.692;2023-06-22T03:19:28;101524.56;;;23.03;55.05
9110;BME280;4590;51.462;6.692;2023-06-22T03:21:54;101528.56;;;23.02;54.45
9110;BME280;4590;51.462;6.692;2023-06-22T03:24:19;101526.56;;;23.02;53.98
9110;BME280;4590;51.462;6.692;2023-06-22T03:26:45;101523.69;;;22.99;55.33
9110;BME280;4590;51.462;6.692;2023-06-22T03:29:11;101520.06;;;22.98;53.25
9110;BME280;4590;51.462;6.692;2023-06-22T03:31:36;101521.66;;;22.96;54.06
9110;BME280;4590;51.462;6.692;2023-06-22T03:34:02;101522.38;;;22.93;55.02
9110;BME280;4590;51.462;6.692;2023-06-22T03:36:27;101512.34;;;22.92;54.23
9110;BME280;4590;51.462;6.692;2023-06-22T03:38:52;101515.16;;;22.92;54.52
9110;BME280;4590;51.462;6.692;2023-06-22T03:41:17;101513.59;;;22.94;54.42
9110;BME280;4590;51.462;6.692;2023-06-22T03:43:42;101506.81;;;22.95;55.23
9110;BME280;4590;51.462;6.692;2023-06-22T03:46:08;101512.88;;;22.97;55.00
9110;BME280;4590;51.462;6.692;2023-06-22T03:48:33;101504.03;;;22.99;55.08
9110;BME280;4590;51.462;6.692;2023-06-22T03:50:59;101500.06;;;23.00;55.10
9110;BME280;4590;51.462;6.692;2023-06-22T03:53:24;101498.88;;;23.01;55.01
9110;BME280;4590;51.462;6.692;2023-06-22T03:55:50;101489.63;;;23.00;55.20
9110;BME280;4590;51.462;6.692;2023-06-22T03:58:15;101492.06;;;23.02;54.37
9110;BME280;4590;51.462;6.692;2023-06-22T04:00:40;101500.06;;;23.00;54.96
9110;BME280;4590;51.462;6.692;2023-06-22T04:03:05;101492.00;;;22.98;55.20
9110;BME280;4590;51.462;6.692;2023-06-22T04:05:32;101490.00;;;22.99;54.79
9110;BME280;4590;51.462;6.692;2023-06-22T04:07:57;101497.63;;;22.98;55.70
9110;BME280;4590;51.462;6.692;2023-06-22T04:10:22;101494.44;;;23.00;55.48
9110;BME280;4590;51.462;6.692;2023-06-22T04:12:47;101498.44;;;22.99;55.93
9110;BME280;4590;51.462;6.692;2023-06-22T04:15:13;101504.47;;;23.01;55.31
9110;BME280;4590;51.462;6.692;2023-06-22T04:17:38;101497.69;;;23.02;53.97
9110;BME280;4590;51.462;6.692;2023-06-22T04:20:03;101496.50;;;23.03;55.44
9110;BME280;4590;51.462;6.692;2023-06-22T04:22:29;101498.56;;;23.06;55.62
9110;BME280;4590;51.462;6.692;2023-06-22T04:24:54;101494.22;;;23.08;54.51
9110;BME280;4590;51.462;6.692;2023-06-22T04:27:19;101495.47;;;23.11;54.95
9110;BME280;4590;51.462;6.692;2023-06-22T04:29:44;101503.13;;;23.14;54.63
9110;BME280;4590;51.462;6.692;2023-06-22T04:32:13;101501.13;;;23.15;55.01
9110;BME280;4590;51.462;6.692;2023-06-22T04:34:40;101510.00;;;23.17;55.29
9110;BME280;4590;51.462;6.692;2023-06-22T04:37:05;101500.75;;;23.16;55.65
9110;BME280;4590;51.462;6.692;2023-06-22T04:39:30;101503.56;;;23.16;55.37
9110;BME280;4590;51.462;6.692;2023-06-22T04:41:56;101504.00;;;23.18;54.23
9110;BME280;4590;51.462;6.692;2023-06-22T04:44:25;101497.19;;;23.19;54.28
9110;BME280;4590;51.462;6.692;2023-06-22T04:46:50;101493.22;;;23.20;54.12
9110;BME280;4590;51.462;6.692;2023-06-22T04:49:19;101486.72;;;23.16;55.19
9110;BME280;4590;51.462;6.692;2023-06-22T04:51:44;101487.91;;;23.15;53.80
9110;BME280;4590;51.462;6.692;2023-06-22T04:54:10;101495.50;;;23.15;55.17
9110;BME280;4590;51.462;6.692;2023-06-22T04:56:35;101491.41;;;23.08;55.65
9110;BME280;4590;51.462;6.692;2023-06-22T04:59:00;101496.44;;;22.99;56.91
9110;BME280;4590;51.462;6.692;2023-06-22T05:01:26;101507.38;;;23.04;55.10
9110;BME280;4590;51.462;6.692;2023-06-22T05:03:51;101504.94;;;23.03;55.86
9110;BME280;4590;51.462;6.692;2023-06-22T05:06:20;101500.06;;;23.00;54.45
9110;BME280;4590;51.462;6.692;2023-06-22T05:08:45;101507.25;;;22.97;53.54
9110;BME280;4590;51.462;6.692;2023-06-22T05:11:10;101500.75;;;22.93;54.18
9110;BME280;4590;51.462;6.692;2023-06-22T05:13:36;101494.19;;;22.86;55.38
9110;BME280;4590;51.462;6.692;2023-06-22T05:16:01;101506.09;;;22.79;56.56
9110;BME280;4590;51.462;6.692;2023-06-22T05:18:30;101500.13;;;22.81;54.52
9110;BME280;4590;51.462;6.692;2023-06-22T05:20:55;101491.97;;;22.75;56.25
9110;BME280;4590;51.462;6.692;2023-06-22T05:23:20;101497.56;;;22.75;55.99
9110;BME280;4590;51.462;6.692;2023-06-22T05:25:45;101501.19;;;22.76;56.78
9110;BME280;4590;51.462;6.692;2023-06-22T05:28:11;101498.50;;;22.80;54.22
9110;BME280;4590;51.462;6.692;2023-06-22T05:30:36;101504.47;;;22.78;55.58
9110;BME280;4590;51.462;6.692;2023-06-22T05:33:02;101494.75;;;22.75;55.45
9110;BME280;4590;51.462;6.692;2023-06-22T05:35:27;101506.09;;;22.79;54.26
9110;BME280;4590;51.462;6.692;2023-06-22T05:37:52;101494.75;;;22.75;55.01
9110;BME280;4590;51.462;6.692;2023-06-22T05:40:17;101504.34;;;22.74;55.31
9110;BME280;4590;51.462;6.692;2023-06-22T05:42:42;101508.34;;;22.73;56.00
9110;BME280;4590;51.462;6.692;2023-06-22T05:45:08;101503.91;;;22.72;55.48
9110;BME280;4590;51.462;6.692;2023-06-22T05:47:34;101518.38;;;22.74;54.83
9110;BME280;4590;51.462;6.692;2023-06-22T05:49:59;101526.44;;;22.76;55.25
9110;BME280;4590;51.462;6.692;2023-06-22T05:52:24;101527.28;;;22.77;55.47
9110;BME280;4590;51.462;6.692;2023-06-22T05:54:49;101540.13;;;22.78;55.94
9110;BME280;4590;51.462;6.692;2023-06-22T05:57:14;101538.50;;;22.77;56.20
9110;BME280;4590;51.462;6.692;2023-06-22T05:59:40;101533.59;;;22.73;57.35
9110;BME280;4590;51.462;6.692;2023-06-22T06:02:05;101539.50;;;22.68;57.52
9110;BME280;4590;51.462;6.692;2023-06-22T06:04:30;101535.38;;;22.62;58.94
9110;BME280;4590;51.462;6.692;2023-06-22T06:06:55;101530.88;;;22.58;58.58
9110;BME280;4590;51.462;6.692;2023-06-22T06:09:21;101525.13;;;22.51;59.25
9110;BME280;4590;51.462;6.692;2023-06-22T06:11:46;101529.03;;;22.46;59.28
9110;BME280;4590;51.462;6.692;2023-06-22T06:14:11;101527.69;;;22.40;59.48
9110;BME280;4590;51.462;6.692;2023-06-22T06:16:36;101518.78;;;22.34;60.81
9110;BME280;4590;51.462;6.692;2023-06-22T06:19:01;101529.16;;;22.34;57.61
9110;BME280;4590;51.462;6.692;2023-06-22T06:21:26;101535.50;;;22.31;59.78
9110;BME280;4590;51.462;6.692;2023-06-22T06:23:52;101520.69;;;22.30;60.72
9110;BME280;4590;51.462;6.692;2023-06-22T06:26:18;101525.03;;;22.28;59.07
9110;BME280;4590;51.462;6.692;2023-06-22T06:28:48;101526.94;;;22.24;58.33
9110;BME280;4590;51.462;6.692;2023-06-22T06:31:13;101524.03;;;22.20;58.44
9110;BME280;4590;51.462;6.692;2023-06-22T06:33:42;101523.53;;;22.15;58.14
9110;BME280;4590;51.462;6.692;2023-06-22T06:36:07;101514.22;;;22.11;60.19
9110;BME280;4590;51.462;6.692;2023-06-22T06:38:33;101520.19;;;22.09;59.76
9110;BME280;4590;51.462;6.692;2023-06-22T06:40:58;101507.00;;;22.10;58.85
9110;BME280;4590;51.462;6.692;2023-06-22T06:43:24;101518.91;;;22.07;58.82
9110;BME280;4590;51.462;6.692;2023-06-22T06:45:49;101500.06;;;22.03;59.44
9110;BME280;4590;51.462;6.692;2023-06-22T06:48:14;101498.00;;;22.00;60.92
9110;BME280;4590;51.462;6.692;2023-06-22T06:50:40;101506.63;;;21.95;60.95
9110;BME280;4590;51.462;6.692;2023-06-22T06:53:05;101491.00;;;21.94;60.04
9110;BME280;4590;51.462;6.692;2023-06-22T06:55:31;101503.38;;;21.93;60.81
9110;BME280;4590;51.462;6.692;2023-06-22T06:57:57;101492.63;;;21.95;59.27
9110;BME280;4590;51.462;6.692;2023-06-22T07:00:23;101489.00;;;21.95;60.71
9110;BME280;4590;51.462;6.692;2023-06-22T07:02:49;101489.09;;;21.98;60.40
9110;BME280;4590;51.462;6.692;2023-06-22T07:05:15;101484.31;;;21.99;61.55
9110;BME280;4590;51.462;6.692;2023-06-22T07:07:40;101494.38;;;22.00;60.02
9110;BME280;4590;51.462;6.692;2023-06-22T07:10:06;101477.88;;;21.98;61.06
9110;BME280;4590;51.462;6.692;2023-06-22T07:12:31;101476.03;;;22.02;60.24
9110;BME280;4590;51.462;6.692;2023-06-22T07:15:06;101464.81;;;22.02;60.82
9110;BME280;4590;51.462;6.692;2023-06-22T07:17:35;101458.44;;;22.05;58.44
9110;BME280;4590;51.462;6.692;2023-06-22T07:20:01;101472.47;;;22.05;62.33
9110;BME280;4590;51.462;6.692;2023-06-22T07:22:27;101464.59;;;22.11;59.39
9110;BME280;4590;51.462;6.692;2023-06-22T07:24:52;101466.28;;;22.16;60.33
9110;BME280;4590;51.462;6.692;2023-06-22T07:27:17;101457.53;;;22.17;61.52
9110;BME280;4590;51.462;6.692;2023-06-22T07:29:44;101455.91;;;22.16;61.71
9110;BME280;4590;51.462;6.692;2023-06-22T07:32:09;101458.34;;;22.18;60.43
9110;BME280;4590;51.462;6.692;2023-06-22T07:34:34;101461.56;;;22.20;59.53
9110;BME280;4590;51.462;6.692;2023-06-22T07:37:00;101467.25;;;22.23;60.17
9110;BME280;4590;51.462;6.692;2023-06-22T07:39:25;101472.94;;;22.27;62.38
9110;BME280;4590;51.462;6.692;2023-06-22T07:41:51;101481.88;;;22.32;61.73
9110;BME280;4590;51.462;6.692;2023-06-22T07:44:16;101481.09;;;22.35;61.70
9110;BME280;4590;51.462;6.692;2023-06-22T07:46:41;101488.44;;;22.40;61.41
9110;BME280;4590;51.462;6.692;2023-06-22T07:49:07;101481.28;;;22.43;60.75
9110;BME280;4590;51.462;6.692;2023-06-22T07:51:33;101474.13;;;22.45;59.18
9110;BME280;4590;51.462;6.692;2023-06-22T07:53:58;101472.94;;;22.27;63.95
9110;BME280;4590;51.462;6.692;2023-06-22T07:56:23;101463.34;;;22.47;61.00
9110;BME280;4590;51.462;6.692;2023-06-22T07:58:48;101466.59;;;22.49;60.77
9110;BME280;4590;51.462;6.692;2023-06-22T08:01:14;101452.22;;;22.51;60.56
9110;BME280;4590;51.462;6.692;2023-06-22T08:03:50;101451.41;;;22.50;60.02
9110;BME280;4590;51.462;6.692;2023-06-22T08:06:15;101448.59;;;22.50;61.89
9110;BME280;4590;51.462;6.692;2023-06-22T08:08:41;101434.97;;;22.52;60.20
9110;BME280;4590;51.462;6.692;2023-06-22T08:11:07;101434.94;;;22.49;61.21
9110;BME280;4590;51.462;6.692;2023-06-22T08:13:33;101420.91;;;22.49;61.70
9110;BME280;4590;51.462;6.692;2023-06-22T08:15:58;101418.84;;;22.46;62.88
9110;BME280;4590;51.462;6.692;2023-06-22T08:18:23;101407.72;;;22.49;62.37
9110;BME280;4590;51.462;6.692;2023-06-22T08:20:48;101398.94;;;22.51;62.32
9110;BME280;4590;51.462;6.692;2023-06-22T08:23:14;101387.31;;;22.52;62.95
9110;BME280;4590;51.462;6.692;2023-06-22T08:25:40;101372.97;;;22.57;61.62
9110;BME280;4590;51.462;6.692;2023-06-22T08:28:05;101368.69;;;22.63;60.86
9110;BME280;4590;51.462;6.692;2023-06-22T08:30:30;101380.78;;;22.67;60.54
9110;BME280;4590;51.462;6.692;2023-06-22T08:32:55;101378.47;;;22.73;61.07
9110;BME280;4590;51.462;6.692;2023-06-22T08:35:21;101379.28;;;22.73;60.66
9110;BME280;4590;51.462;6.692;2023-06-22T08:37:47;101381.00;;;22.78;60.97
9110;BME280;4590;51.462;6.692;2023-06-22T08:40:16;101362.66;;;22.84;60.52
9110;BME280;4590;51.462;6.692;2023-06-22T08:42:42;101371.59;;;22.90;60.44
9110;BME280;4590;51.462;6.692;2023-06-22T08:45:07;101364.88;;;22.94;60.16
9110;BME280;4590;51.462;6.692;2023-06-22T08:47:32;101366.16;;;23.00;60.87
9110;BME280;4590;51.462;6.692;2023-06-22T08:49:57;101371.88;;;23.07;61.03
9110;BME280;4590;51.462;6.692;2023-06-22T08:52:23;101377.19;;;23.13;61.05
9110;BME280;4590;51.462;6.692;2023-06-22T08:54:48;101367.63;;;23.17;61.66
9110;BME280;4590;51.462;6.692;2023-06-22T08:57:13;101370.88;;;23.19;62.51
9110;BME280;4590;51.462;6.692;2023-06-22T08:59:38;101374.78;;;23.15;62.50
9110;BME280;4590;51.462;6.692;2023-06-22T09:02:05;101371.38;;;23.25;62.72
9110;BME280;4590;51.462;6.692;2023-06-22T09:04:30;101380.69;;;23.32;61.03
9110;BME280;4590;51.462;6.692;2023-06-22T09:06:59;101375.56;;;23.38;61.28
9110;BME280;4590;51.462;6.692;2023-06-22T09:09:24;101368.03;;;23.42;59.66
9110;BME280;4590;51.462;6.692;2023-06-22T09:11:49;101375.63;;;23.41;60.34
9110;BME280;4590;51.462;6.692;2023-06-22T09:14:14;101365.66;;;23.44;60.75
9110;BME280;4590;51.462;6.692;2023-06-22T09:16:40;101362.03;;;23.43;60.62
9110;BME280;4590;51.462;6.692;2023-06-22T09:19:05;101360.88;;;23.48;60.89
9110;BME280;4590;51.462;6.692;2023-06-22T09:21:30;101365.38;;;23.53;61.02
9110;BME280;4590;51.462;6.692;2023-06-22T09:23:55;101362.25;;;23.58;60.48
9110;BME280;4590;51.462;6.692;2023-06-22T09:26:21;101361.09;;;23.62;59.69
9110;BME280;4590;51.462;6.692;2023-06-22T09:28:48;101360.34;;;23.65;60.93
9110;BME280;4590;51.462;6.692;2023-06-22T09:31:14;101354.03;;;23.72;60.89
9110;BME280;4590;51.462;6.692;2023-06-22T09:33:41;101355.28;;;23.78;60.31
9110;BME280;4590;51.462;6.692;2023-06-22T09:36:07;101360.59;;;23.83;60.44
9110;BME280;4590;51.462;6.692;2023-06-22T09:38:41;101357.88;;;23.90;60.71
9110;BME280;4590;51.462;6.692;2023-06-22T09:41:06;101355.53;;;23.96;59.98
9110;BME280;4590;51.462;6.692;2023-06-22T09:43:31;101363.25;;;24.02;59.32
9110;BME280;4590;51.462;6.692;2023-06-22T09:45:57;101365.69;;;24.04;59.82
9110;BME280;4590;51.462;6.692;2023-06-22T09:48:22;101364.94;;;24.10;58.99
9110;BME280;4590;51.462;6.692;2023-06-22T09:50:47;101349.31;;;24.13;59.76
9110;BME280;4590;51.462;6.692;2023-06-22T09:53:12;101350.22;;;24.21;59.82
9110;BME280;4590;51.462;6.692;2023-06-22T09:55:38;101356.78;;;24.32;58.62
9110;BME280;4590;51.462;6.692;2023-06-22T09:58:03;101351.25;;;24.42;58.74
9110;BME280;4590;51.462;6.692;2023-06-22T10:00:28;101356.22;;;24.53;58.74
9110;BME280;4590;51.462;6.692;2023-06-22T10:02:53;101353.50;;;24.63;58.22
9110;BME280;4590;51.462;6.692;2023-06-22T10:05:19;101351.16;;;24.72;57.71
9110;BME280;4590;51.462;6.692;2023-06-22T10:07:44;101346.03;;;24.81;57.87
9110;BME280;4590;51.462;6.692;2023-06-22T10:10:10;101336.56;;;25.00;58.48
9110;BME280;4590;51.462;6.692;2023-06-22T10:12:35;101340.72;;;25.17;57.74
9110;BME280;4590;51.462;6.692;2023-06-22T10:15:00;101328.31;;;25.29;57.44
9110;BME280;4590;51.462;6.692;2023-06-22T10:17:26;101331.59;;;25.41;57.97
9110;BME280;4590;51.462;6.692;2023-06-22T10:19:51;101319.22;;;25.57;57.07
9110;BME280;4590;51.462;6.692;2023-06-22T10:22:16;101320.09;;;25.68;56.69
9110;BME280;4590;51.462;6.692;2023-06-22T10:24:41;101326.19;;;25.77;56.68
9110;BME280;4590;51.462;6.692;2023-06-22T10:27:11;101323.00;;;25.89;56.60
9110;BME280;4590;51.462;6.692;2023-06-22T10:29:37;101314.59;;;26.03;56.55
9110;BME280;4590;51.462;6.692;2023-06-22T10:32:02;101308.19;;;26.17;56.84
9110;BME280;4590;51.462;6.692;2023-06-22T10:34:27;101308.63;;;26.26;55.65
9110;BME280;4590;51.462;6.692;2023-06-22T10:36:52;101313.44;;;26.22;55.06
9110;BME280;4590;51.462;6.692;2023-06-22T10:39:18;101311.88;;;26.32;55.31
9110;BME280;4590;51.462;6.692;2023-06-22T10:41:43;101311.06;;;26.31;54.93
9110;BME280;4590;51.462;6.692;2023-06-22T10:44:08;101325.19;;;26.35;55.25
9110;BME280;4590;51.462;6.692;2023-06-22T10:46:33;101325.19;;;26.35;54.88
9110;BME280;4590;51.462;6.692;2023-06-22T10:48:59;101330.38;;;26.26;54.86
9110;BME280;4590;51.462;6.692;2023-06-22T10:51:24;101334.03;;;26.30;54.63
9110;BME280;4590;51.462;6.692;2023-06-22T10:53:50;101337.28;;;26.35;54.64
9110;BME280;4590;51.462;6.692;2023-06-22T10:56:16;101345.75;;;26.35;54.17
9110;BME280;4590;51.462;6.692;2023-06-22T10:58:41;101351.78;;;26.37;54.68
9110;BME280;4590;51.462;6.692;2023-06-22T11:01:06;101344.53;;;26.33;54.42
9110;BME280;4590;51.462;6.692;2023-06-22T11:03:31;101350.16;;;26.33;54.31
9110;BME280;4590;51.462;6.692;2023-06-22T11:05:56;101342.50;;;26.30;54.43
9110;BME280;4590;51.462;6.692;2023-06-22T11:08:21;101348.88;;;26.19;54.16
9110;BME280;4590;51.462;6.692;2023-06-22T11:10:47;101343.22;;;26.16;54.22
9110;BME280;4590;51.462;6.692;2023-06-22T11:13:12;101335.59;;;26.13;54.63
9110;BME280;4590;51.462;6.692;2023-06-22T11:15:38;101332.34;;;26.11;54.84
9110;BME280;4590;51.462;6.692;2023-06-22T11:18:03;101323.88;;;26.07;54.67
9110;BME280;4590;51.462;6.692;2023-06-22T11:20:30;101330.31;;;26.04;55.05
9110;BME280;4590;51.462;6.692;2023-06-22T11:22:55;101325.03;;;25.99;55.09
9110;BME280;4590;51.462;6.692;2023-06-22T11:25:20;101336.34;;;25.96;55.50
9110;BME280;4590;51.462;6.692;2023-06-22T11:27:46;101334.63;;;25.73;56.85
9110;BME280;4590;51.462;6.692;2023-06-22T11:30:11;101339.06;;;25.81;58.45
9110;BME280;4590;51.462;6.692;2023-06-22T11:32:36;101331.03;;;25.83;57.53
9110;BME280;4590;51.462;6.692;2023-06-22T11:35:01;101333.03;;;25.76;57.56
9110;BME280;4590;51.462;6.692;2023-06-22T11:37:26;101338.63;;;25.65;59.55
9110;BME280;4590;51.462;6.692;2023-06-22T11:39:52;101340.13;;;25.56;61.78
9110;BME280;4590;51.462;6.692;2023-06-22T11:42:19;101339.28;;;25.48;63.00
9110;BME280;4590;51.462;6.692;2023-06-22T11:44:44;101360.56;;;25.38;66.07
9110;BME280;4590;51.462;6.692;2023-06-22T11:47:10;101356.81;;;25.20;68.67
9110;BME280;4590;51.462;6.692;2023-06-22T11:49:35;101343.75;;;24.94;68.65
9110;BME280;4590;51.462;6.692;2023-06-22T11:52:00;101305.19;;;25.02;64.68
9110;BME280;4590;51.462;6.692;2023-06-22T11:54:25;101286.56;;;24.87;61.68
9110;BME280;4590;51.462;6.692;2023-06-22T11:56:50;101271.94;;;24.67;62.36
9110;BME280;4590;51.462;6.692;2023-06-22T11:59:16;101273.72;;;24.45;62.23
9110;BME280;4590;51.462;6.692;2023-06-22T12:01:41;101257.88;;;24.26;64.79
9110;BME280;4590;51.462;6.692;2023-06-22T12:04:06;101251.66;;;24.10;62.55
9110;BME280;4590;51.462;6.692;2023-06-22T12:06:32;101253.94;;;23.97;65.45
9110;BME280;4590;51.462;6.692;2023-06-22T12:08:57;101259.09;;;23.88;65.59
9110;BME280;4590;51.462;6.692;2023-06-22T12:11:22;101255.38;;;23.81;66.46
9110;BME280;4590;51.462;6.692;2023-06-22T12:13:47;101251.31;;;23.74;64.84
9110;BME280;4590;51.462;6.692;2023-06-22T12:16:13;101248.00;;;23.69;65.91
9110;BME280;4590;51.462;6.692;2023-06-22T12:18:38;101235.53;;;23.66;67.22
9110;BME280;4590;51.462;6.692;2023-06-22T12:21:03;101228.69;;;23.64;65.92
9110;BME280;4590;51.462;6.692;2023-06-22T12:23:28;101237.09;;;23.64;66.70
9110;BME280;4590;51.462;6.692;2023-06-22T12:25:53;101225.06;;;23.63;67.35
9110;BME280;4590;51.462;6.692;2023-06-22T12:28:18;101232.69;;;23.63;68.18
9110;BME280;4590;51.462;6.692;2023-06-22T12:30:44;101224.69;;;23.65;67.39
9110;BME280;4590;51.462;6.692;2023-06-22T12:33:09;101215.50;;;23.68;68.09
9110;BME280;4590;51.462;6.692;2023-06-22T12:35:34;101185.88;;;23.74;64.36
9110;BME280;4590;51.462;6.692;2023-06-22T12:37:59;101166.69;;;23.83;68.00
9110;BME280;4590;51.462;6.692;2023-06-22T12:40:24;101160.75;;;23.92;71.32
9110;BME280;4590;51.462;6.692;2023-06-22T12:42:50;101159.56;;;23.96;65.63
9110;BME280;4590;51.462;6.692;2023-06-22T12:45:15;101164.81;;;23.98;66.66
9110;BME280;4590;51.462;6.692;2023-06-22T12:47:40;101180.09;;;24.00;68.25
9110;BME280;4590;51.462;6.692;2023-06-22T12:50:06;101178.94;;;24.05;68.34
9110;BME280;4590;51.462;6.692;2023-06-22T12:52:31;101172.94;;;24.10;67.67
9110;BME280;4590;51.462;6.692;2023-06-22T12:54:57;101164.94;;;24.12;68.92
9110;BME280;4590;51.462;6.692;2023-06-22T12:57:22;101164.63;;;24.21;67.61
9110;BME280;4590;51.462;6.692;2023-06-22T12:59:48;101172.72;;;24.26;67.16
9110;BME280;4590;51.462;6.692;2023-06-22T13:02:13;101171.16;;;24.32;67.61
9110;BME280;4590;51.462;6.692;2023-06-22T13:04:38;101160.38;;;24.37;66.09
9110;BME280;4590;51.462;6.692;2023-06-22T13:07:04;101152.34;;;24.43;65.62
9110;BME280;4590;51.462;6.692;2023-06-22T13:09:29;101163.22;;;24.44;68.26
9110;BME280;4590;51.462;6.692;2023-06-22T13:11:55;101160.44;;;24.48;66.30
9110;BME280;4590;51.462;6.692;2023-06-22T13:14:20;101160.88;;;24.50;67.33
9110;BME280;4590;51.462;6.692;2023-06-22T13:16:45;101148.84;;;24.53;65.93
9110;BME280;4590;51.462;6.692;2023-06-22T13:19:10;101139.97;;;24.51;67.83